sensor_id;sensor_type;location;lat;lon;timestamp;temperature;humidity
19348;DHT22;9810;52.480;9.806;2023-07-08T00:00:20;17.10;99.90
19348;DHT22;9810;52.480;9.806;2023-07-08T00:02:48;17.00;99.90
19348;DHT22;9810;52.480;9.806;2023-07-08T00:05:17;16.90;99.90
19348;DHT22;9810;52.480;9.806;2023-07-08T00:07:44;16.80;99.90
19348;DHT22;9810;52.480;9.806;2023-07-08T00:10:17;16.80;99.90
19348;DHT22;9810;52.480;9.806;2023-07-08T00:12:47;16.80;99.90
19348;DHT22;9810;52.480;9.806;2023-07-08T00:15:14;16.70;99.90
19348;DHT22;9810;52.480;9.806;2023-07-08T00:17:43;16.50;99.90
19348;DHT22;9810;52.480;9.806;2023-07-08T00:20:12;16.50;99.90
19348;DHT22;9810;52.480;9.806;2023-07-08T00:22:41;16.40;99.90
19348;DHT22;9810;52.480;9.806;2023-07-08T00:25:09;16.30;99.90
19348;DHT22;9810;52.480;9.806;2023-07-08T00:27:38;16.30;99.90
19348;DHT22;9810;52.480;9.806;2023-07-08T00:30:23;16.30;99.90
19348;DHT22;9810;52.480;9.806;2023-07-08T00:32:51;16.20;99.90
19348;DHT22;9810;52.480;9.806;2023-07-08T00:35:21;16.10;99.90
19348;DHT22;9810;52.480;9.806;2023-07-08T00:37:50;16.10;99.90
19348;DHT22;9810;52.480;9.806;2023-07-08T00:40:21;16.20;99.90
19348;DHT22;9810;52.480;9.806;2023-07-08T00:42:51;16.30;99.90
19348;DHT22;9810;52.480;9.806;2023-07-08T00:45:32;16.10;99.90
19348;DHT22;9810;52.480;9.806;2023-07-08T00:48:11;16.00;99.90
19348;DHT22;9810;52.480;9.806;2023-07-08T00:50:39;16.20;99.90
19348;DHT22;9810;52.480;9.806;2023-07-08T00:53:31;16.30;99.90
19348;DHT22;9810;52.480;9.806;2023-07-08T00:56:02;16.20;99.90
19348;DHT22;9810;52.480;9.806;2023-07-08T00:58:35;16.00;99.90
19348;DHT22;9810;52.480;9.806;2023-07-08T01:01:05;15.90;99.90
19348;DHT22;9810;52.480;9.806;2023-07-08T01:03:36;16.00;99.90
19348;DHT22;9810;52.480;9.806;2023-07-08T01:06:08;15.80;99.90
19348;DHT22;9810;52.480;9.806;2023-07-08T01:08:35;15.70;99.90
19348;DHT22;9810;52.480;9.806;2023-07-08T01:11:04;15.60;99.90
19348;DHT22;9810;52.480;9.806;2023-07-08T01:13:36;15.60;99.90
19348;DHT22;9810;52.480;9.806;2023-07-08T01:16:04;15.50;99.90
19348;DHT22;9810;52.480;9.806;2023-07-08T01:18:33;15.40;99.90
19348;DHT22;9810;52.480;9.806;2023-07-08T01:21:04;15.40;99.90
19348;DHT22;9810;52.480;9.806;2023-07-08T01:23:34;15.40;99.90
19348;DHT22;9810;52.480;9.806;2023-07-08T01:26:03;15.30;99.90
19348;DHT22;9810;52.480;9.806;2023-07-08T01:28:31;15.30;99.90
19348;DHT22;9810;52.480;9.806;2023-07-08T01:30:59;15.30;99.90
19348;DHT22;9810;52.480;9.806;2023-07-08T01:33:27;15.50;99.90
19348;DHT22;9810;52.480;9.806;2023-07-08T01:35:54;15.70;99.90
19348;DHT22;9810;52.480;9.806;2023-07-08T01:38:24;15.60;99.90
19348;DHT22;9810;52.480;9.806;2023-07-08T01:40:56;15.80;99.90
19348;DHT22;9810;52.480;9.806;2023-07-08T01:43:25;15.80;99.90
19348;DHT22;9810;52.480;9.806;2023-07-08T01:45:52;15.70;99.90
19348;DHT22;9810;52.480;9.806;2023-07-08T01:48:22;15.80;99.90
19348;DHT22;9810;52.480;9.806;2023-07-08T01:50:53;15.90;99.90
19348;DHT22;9810;52.480;9.806;2023-07-08T01:53:27;15.80;99.90
19348;DHT22;9810;52.480;9.806;2023-07-08T01:55:56;15.90;99.90
19348;DHT22;9810;52.480;9.806;2023-07-08T01:58:23;16.00;99.90
19348;DHT22;9810;52.480;9.806;2023-07-08T02:00:50;15.90;99.90
19348;DHT22;9810;52.480;9.806;2023-07-08T02:03:18;15.90;99.90
19348;DHT22;9810;52.480;9.806;2023-07-08T02:05:45;15.70;99.90
19348;DHT22;9810;52.480;9.806;2023-07-08T02:08:12;15.60;99.90
19348;DHT22;9810;52.480;9.806;2023-07-08T02:10:40;15.70;99.90
19348;DHT22;9810;52.480;9.806;2023-07-08T02:13:09;15.60;99.90
19348;DHT22;9810;52.480;9.806;2023-07-08T02:15:37;15.50;99.90
19348;DHT22;9810;52.480;9.806;2023-07-08T02:18:04;15.50;99.90
19348;DHT22;9810;52.480;9.806;2023-07-08T02:20:31;15.70;99.90
19348;DHT22;9810;52.480;9.806;2023-07-08T02:22:59;15.60;99.90
19348;DHT22;9810;52.480;9.806;2023-07-08T02:25:26;15.60;99.90
19348;DHT22;9810;52.480;9.806;2023-07-08T02:27:54;15.50;99.90
19348;DHT22;9810;52.480;9.806;2023-07-08T02:30:24;15.40;99.90
19348;DHT22;9810;52.480;9.806;2023-07-08T02:32:52;15.40;99.90
19348;DHT22;9810;52.480;9.806;2023-07-08T02:35:24;15.20;99.90
19348;DHT22;9810;52.480;9.806;2023-07-08T02:37:52;15.10;99.90
19348;DHT22;9810;52.480;9.806;2023-07-08T02:40:20;15.00;99.90
19348;DHT22;9810;52.480;9.806;2023-07-08T02:42:47;15.10;99.90
19348;DHT22;9810;52.480;9.806;2023-07-08T02:45:16;15.00;99.90
19348;DHT22;9810;52.480;9.806;2023-07-08T02:47:45;14.90;99.90
19348;DHT22;9810;52.480;9.806;2023-07-08T02:50:12;15.00;99.90
19348;DHT22;9810;52.480;9.806;2023-07-08T02:52:40;15.10;99.90
19348;DHT22;9810;52.480;9.806;2023-07-08T02:55:08;15.10;99.90
19348;DHT22;9810;52.480;9.806;2023-07-08T02:57:35;15.10;99.90
19348;DHT22;9810;52.480;9.806;2023-07-08T03:00:03;15.00;99.90
19348;DHT22;9810;52.480;9.806;2023-07-08T03:02:32;15.10;99.90
19348;DHT22;9810;52.480;9.806;2023-07-08T03:05:01;15.00;99.90
19348;DHT22;9810;52.480;9.806;2023-07-08T03:07:31;15.00;99.90
19348;DHT22;9810;52.480;9.806;2023-07-08T03:09:58;15.10;99.90
19348;DHT22;9810;52.480;9.806;2023-07-08T03:12:25;15.30;99.90
19348;DHT22;9810;52.480;9.806;2023-07-08T03:14:53;15.30;99.90
19348;DHT22;9810;52.480;9.806;2023-07-08T03:17:20;15.10;99.90
19348;DHT22;9810;52.480;9.806;2023-07-08T03:19:47;15.10;99.90
19348;DHT22;9810;52.480;9.806;2023-07-08T03:22:16;15.10;99.90
19348;DHT22;9810;52.480;9.806;2023-07-08T03:24:43;15.00;99.90
19348;DHT22;9810;52.480;9.806;2023-07-08T03:27:13;15.10;99.90
19348;DHT22;9810;52.480;9.806;2023-07-08T03:29:41;15.00;99.90
19348;DHT22;9810;52.480;9.806;2023-07-08T03:32:10;15.00;99.90
19348;DHT22;9810;52.480;9.806;2023-07-08T03:34:38;15.10;99.90
19348;DHT22;9810;52.480;9.806;2023-07-08T03:37:06;15.30;99.90
19348;DHT22;9810;52.480;9.806;2023-07-08T03:39:34;15.30;99.90
19348;DHT22;9810;52.480;9.806;2023-07-08T03:42:02;15.30;99.90
19348;DHT22;9810;52.480;9.806;2023-07-08T03:44:30;15.40;99.90
19348;DHT22;9810;52.480;9.806;2023-07-08T03:46:58;15.40;99.90
19348;DHT22;9810;52.480;9.806;2023-07-08T03:49:25;15.40;99.90
19348;DHT22;9810;52.480;9.806;2023-07-08T03:51:53;15.30;99.90
19348;DHT22;9810;52.480;9.806;2023-07-08T03:54:22;15.20;99.90
19348;DHT22;9810;52.480;9.806;2023-07-08T03:56:51;15.20;99.90
19348;DHT22;9810;52.480;9.806;2023-07-08T03:59:19;15.40;99.90
19348;DHT22;9810;52.480;9.806;2023-07-08T04:01:46;15.40;99.90
19348;DHT22;9810;52.480;9.806;2023-07-08T04:04:14;15.60;99.90
19348;DHT22;9810;52.480;9.806;2023-07-08T04:06:42;16.00;99.90
19348;DHT22;9810;52.480;9.806;2023-07-08T04:09:10;17.30;99.90
19348;DHT22;9810;52.480;9.806;2023-07-08T04:11:38;18.50;99.90
19348;DHT22;9810;52.480;9.806;2023-07-08T04:14:08;18.80;99.90
19348;DHT22;9810;52.480;9.806;2023-07-08T04:16:44;18.60;99.90
19348;DHT22;9810;52.480;9.806;2023-07-08T04:19:12;18.90;99.90
19348;DHT22;9810;52.480;9.806;2023-07-08T04:21:41;18.90;99.90
19348;DHT22;9810;52.480;9.806;2023-07-08T04:24:10;18.50;99.90
19348;DHT22;9810;52.480;9.806;2023-07-08T04:26:38;17.50;99.90
19348;DHT22;9810;52.480;9.806;2023-07-08T04:29:10;16.60;99.90
19348;DHT22;9810;52.480;9.806;2023-07-08T04:31:38;16.40;99.90
19348;DHT22;9810;52.480;9.806;2023-07-08T04:34:05;16.30;99.90
19348;DHT22;9810;52.480;9.806;2023-07-08T04:36:32;16.20;99.90
19348;DHT22;9810;52.480;9.806;2023-07-08T04:39:01;16.20;99.90
19348;DHT22;9810;52.480;9.806;2023-07-08T04:41:28;16.20;99.90
19348;DHT22;9810;52.480;9.806;2023-07-08T04:43:57;16.10;99.90
19348;DHT22;9810;52.480;9.806;2023-07-08T04:46:33;16.00;99.90
19348;DHT22;9810;52.480;9.806;2023-07-08T04:49:03;16.10;99.90
19348;DHT22;9810;52.480;9.806;2023-07-08T04:51:30;16.20;99.90
19348;DHT22;9810;52.480;9.806;2023-07-08T04:53:57;16.20;99.90
19348;DHT22;9810;52.480;9.806;2023-07-08T04:56:27;16.30;99.90
19348;DHT22;9810;52.480;9.806;2023-07-08T04:59:01;16.30;99.90
19348;DHT22;9810;52.480;9.806;2023-07-08T05:01:30;16.30;99.90
19348;DHT22;9810;52.480;9.806;2023-07-08T05:03:57;16.50;99.90
19348;DHT22;9810;52.480;9.806;2023-07-08T05:06:25;16.50;99.90
19348;DHT22;9810;52.480;9.806;2023-07-08T05:08:52;16.60;99.90
19348;DHT22;9810;52.480;9.806;2023-07-08T05:11:19;16.70;99.90
19348;DHT22;9810;52.480;9.806;2023-07-08T05:13:47;16.80;99.90
19348;DHT22;9810;52.480;9.806;2023-07-08T05:16:14;16.90;99.90
19348;DHT22;9810;52.480;9.806;2023-07-08T05:18:45;16.90;99.90
19348;DHT22;9810;52.480;9.806;2023-07-08T05:21:12;17.00;99.90
19348;DHT22;9810;52.480;9.806;2023-07-08T05:23:40;17.10;99.90
19348;DHT22;9810;52.480;9.806;2023-07-08T05:26:07;17.10;99.90
19348;DHT22;9810;52.480;9.806;2023-07-08T05:28:35;17.20;99.90
19348;DHT22;9810;52.480;9.806;2023-07-08T05:31:02;17.20;99.90
19348;DHT22;9810;52.480;9.806;2023-07-08T05:33:30;17.30;99.90
19348;DHT22;9810;52.480;9.806;2023-07-08T05:36:00;17.40;99.90
19348;DHT22;9810;52.480;9.806;2023-07-08T05:38:27;17.50;99.90
19348;DHT22;9810;52.480;9.806;2023-07-08T05:40:56;17.60;99.90
19348;DHT22;9810;52.480;9.806;2023-07-08T05:43:24;17.60;99.90
19348;DHT22;9810;52.480;9.806;2023-07-08T05:45:57;17.80;99.90
19348;DHT22;9810;52.480;9.806;2023-07-08T05:48:24;17.90;99.90
19348;DHT22;9810;52.480;9.806;2023-07-08T05:50:52;18.00;99.90
19348;DHT22;9810;52.480;9.806;2023-07-08T05:53:21;18.10;99.90
19348;DHT22;9810;52.480;9.806;2023-07-08T05:55:49;18.30;99.90
19348;DHT22;9810;52.480;9.806;2023-07-08T05:58:16;18.40;99.90
19348;DHT22;9810;52.480;9.806;2023-07-08T06:00:44;18.40;99.90
19348;DHT22;9810;52.480;9.806;2023-07-08T06:03:12;18.40;99.90
19348;DHT22;9810;52.480;9.806;2023-07-08T06:05:39;18.30;99.90
19348;DHT22;9810;52.480;9.806;2023-07-08T06:08:06;18.30;99.90
19348;DHT22;9810;52.480;9.806;2023-07-08T06:10:41;18.50;99.90
19348;DHT22;9810;52.480;9.806;2023-07-08T06:13:09;18.70;99.90
19348;DHT22;9810;52.480;9.806;2023-07-08T06:15:37;18.90;99.90
19348;DHT22;9810;52.480;9.806;2023-07-08T06:18:04;19.50;99.90
19348;DHT22;9810;52.480;9.806;2023-07-08T06:20:31;19.40;99.90
19348;DHT22;9810;52.480;9.806;2023-07-08T06:22:58;19.30;99.90
19348;DHT22;9810;52.480;9.806;2023-07-08T06:25:26;19.30;99.90
19348;DHT22;9810;52.480;9.806;2023-07-08T06:27:55;19.30;99.90
19348;DHT22;9810;52.480;9.806;2023-07-08T06:30:22;19.40;99.90
19348;DHT22;9810;52.480;9.806;2023-07-08T06:32:50;19.30;99.90
19348;DHT22;9810;52.480;9.806;2023-07-08T06:35:17;19.50;99.90
19348;DHT22;9810;52.480;9.806;2023-07-08T06:37:44;19.50;99.90
19348;DHT22;9810;52.480;9.806;2023-07-08T06:40:12;19.70;99.90
19348;DHT22;9810;52.480;9.806;2023-07-08T06:42:39;19.80;99.90
19348;DHT22;9810;52.480;9.806;2023-07-08T06:45:10;19.80;99.90
19348;DHT22;9810;52.480;9.806;2023-07-08T06:47:37;20.00;99.90
19348;DHT22;9810;52.480;9.806;2023-07-08T06:50:06;20.00;99.90
19348;DHT22;9810;52.480;9.806;2023-07-08T06:52:34;20.10;99.90
19348;DHT22;9810;52.480;9.806;2023-07-08T06:55:05;20.20;99.90
19348;DHT22;9810;52.480;9.806;2023-07-08T06:57:33;20.20;99.90
19348;DHT22;9810;52.480;9.806;2023-07-08T07:00:01;20.20;99.90
19348;DHT22;9810;52.480;9.806;2023-07-08T07:02:30;20.40;99.90
19348;DHT22;9810;52.480;9.806;2023-07-08T07:04:58;20.50;99.90
19348;DHT22;9810;52.480;9.806;2023-07-08T07:07:25;20.70;99.90
19348;DHT22;9810;52.480;9.806;2023-07-08T07:09:53;20.80;99.90
19348;DHT22;9810;52.480;9.806;2023-07-08T07:12:21;21.00;99.90
19348;DHT22;9810;52.480;9.806;2023-07-08T07:14:48;21.10;99.90
19348;DHT22;9810;52.480;9.806;2023-07-08T07:17:18;21.30;99.90
19348;DHT22;9810;52.480;9.806;2023-07-08T07:19:47;21.30;99.90
19348;DHT22;9810;52.480;9.806;2023-07-08T07:22:15;21.60;99.90
19348;DHT22;9810;52.480;9.806;2023-07-08T07:24:42;21.60;99.90
19348;DHT22;9810;52.480;9.806;2023-07-08T07:27:10;22.00;99.90
19348;DHT22;9810;52.480;9.806;2023-07-08T07:29:46;22.20;99.90
19348;DHT22;9810;52.480;9.806;2023-07-08T07:32:15;22.80;99.90
19348;DHT22;9810;52.480;9.806;2023-07-08T07:34:42;23.10;99.90
19348;DHT22;9810;52.480;9.806;2023-07-08T07:37:16;23.30;99.90
19348;DHT22;9810;52.480;9.806;2023-07-08T07:39:43;24.00;99.90
19348;DHT22;9810;52.480;9.806;2023-07-08T07:42:13;24.40;99.90
19348;DHT22;9810;52.480;9.806;2023-07-08T07:44:40;25.00;99.90
19348;DHT22;9810;52.480;9.806;2023-07-08T07:47:08;25.10;99.90
19348;DHT22;9810;52.480;9.806;2023-07-08T07:49:36;25.40;99.90
19348;DHT22;9810;52.480;9.806;2023-07-08T07:52:04;25.90;99.90
19348;DHT22;9810;52.480;9.806;2023-07-08T07:54:33;26.50;99.90
19348;DHT22;9810;52.480;9.806;2023-07-08T07:57:01;26.50;99.90
19348;DHT22;9810;52.480;9.806;2023-07-08T07:59:28;26.50;99.90
19348;DHT22;9810;52.480;9.806;2023-07-08T08:01:55;26.90;99.90
19348;DHT22;9810;52.480;9.806;2023-07-08T08:04:23;26.90;99.90
19348;DHT22;9810;52.480;9.806;2023-07-08T08:06:50;27.20;99.90
19348;DHT22;9810;52.480;9.806;2023-07-08T08:09:17;26.60;99.90
19348;DHT22;9810;52.480;9.806;2023-07-08T08:11:46;26.90;99.90
19348;DHT22;9810;52.480;9.806;2023-07-08T08:14:13;27.10;99.90
19348;DHT22;9810;52.480;9.806;2023-07-08T08:16:41;27.80;99.90
19348;DHT22;9810;52.480;9.806;2023-07-08T08:19:07;28.00;99.90
19348;DHT22;9810;52.480;9.806;2023-07-08T08:21:35;28.30;99.90
19348;DHT22;9810;52.480;9.806;2023-07-08T08:24:02;28.60;99.90
19348;DHT22;9810;52.480;9.806;2023-07-08T08:26:30;28.10;99.90
19348;DHT22;9810;52.480;9.806;2023-07-08T08:28:59;28.60;99.90
19348;DHT22;9810;52.480;9.806;2023-07-08T08:31:26;28.60;99.90
19348;DHT22;9810;52.480;9.806;2023-07-08T08:33:53;28.70;99.90
19348;DHT22;9810;52.480;9.806;2023-07-08T08:36:21;28.90;99.90
19348;DHT22;9810;52.480;9.806;2023-07-08T08:38:48;28.70;99.90
19348;DHT22;9810;52.480;9.806;2023-07-08T08:41:19;29.40;99.90
19348;DHT22;9810;52.480;9.806;2023-07-08T08:43:48;29.40;99.90
19348;DHT22;9810;52.480;9.806;2023-07-08T08:46:26;29.60;99.90
19348;DHT22;9810;52.480;9.806;2023-07-08T08:49:02;29.40;99.90
19348;DHT22;9810;52.480;9.806;2023-07-08T08:51:32;29.80;99.90
19348;DHT22;9810;52.480;9.806;2023-07-08T08:54:00;30.40;99.90
19348;DHT22;9810;52.480;9.806;2023-07-08T08:56:30;30.60;99.90
19348;DHT22;9810;52.480;9.806;2023-07-08T08:59:02;29.70;99.90
19348;DHT22;9810;52.480;9.806;2023-07-08T09:01:33;30.60;99.90
19348;DHT22;9810;52.480;9.806;2023-07-08T09:04:03;30.80;99.90
19348;DHT22;9810;52.480;9.806;2023-07-08T09:06:34;30.20;99.90
19348;DHT22;9810;52.480;9.806;2023-07-08T09:09:04;29.90;99.90
19348;DHT22;9810;52.480;9.806;2023-07-08T09:11:42;30.30;99.90
19348;DHT22;9810;52.480;9.806;2023-07-08T09:14:15;30.60;99.90
19348;DHT22;9810;52.480;9.806;2023-07-08T09:16:50;31.30;99.90
19348;DHT22;9810;52.480;9.806;2023-07-08T09:19:23;30.60;99.90
19348;DHT22;9810;52.480;9.806;2023-07-08T09:21:57;30.60;99.90
19348;DHT22;9810;52.480;9.806;2023-07-08T09:24:31;31.10;99.90
19348;DHT22;9810;52.480;9.806;2023-07-08T09:27:01;29.90;99.90
19348;DHT22;9810;52.480;9.806;2023-07-08T09:29:28;29.60;99.90
19348;DHT22;9810;52.480;9.806;2023-07-08T09:31:58;31.00;99.90
19348;DHT22;9810;52.480;9.806;2023-07-08T09:34:37;31.40;99.90
19348;DHT22;9810;52.480;9.806;2023-07-08T09:37:23;31.70;99.90
19348;DHT22;9810;52.480;9.806;2023-07-08T09:39:51;31.60;99.90
19348;DHT22;9810;52.480;9.806;2023-07-08T09:42:20;30.90;99.90
19348;DHT22;9810;52.480;9.806;2023-07-08T09:44:47;30.80;99.90
19348;DHT22;9810;52.480;9.806;2023-07-08T09:47:25;31.40;99.90
19348;DHT22;9810;52.480;9.806;2023-07-08T09:49:54;30.90;99.90
19348;DHT22;9810;52.480;9.806;2023-07-08T09:52:21;29.90;99.90
19348;DHT22;9810;52.480;9.806;2023-07-08T09:54:49;30.00;99.90
19348;DHT22;9810;52.480;9.806;2023-07-08T09:57:24;29.70;99.90
19348;DHT22;9810;52.480;9.806;2023-07-08T09:59:56;29.90;99.90
19348;DHT22;9810;52.480;9.806;2023-07-08T10:02:41;29.70;99.90
19348;DHT22;9810;52.480;9.806;2023-07-08T10:05:14;29.50;99.90
19348;DHT22;9810;52.480;9.806;2023-07-08T10:07:44;30.40;99.90
19348;DHT22;9810;52.480;9.806;2023-07-08T10:10:15;30.10;99.90
19348;DHT22;9810;52.480;9.806;2023-07-08T10:12:51;30.60;99.90
19348;DHT22;9810;52.480;9.806;2023-07-08T10:15:24;31.10;99.90
19348;DHT22;9810;52.480;9.806;2023-07-08T10:17:55;29.60;99.90
19348;DHT22;9810;52.480;9.806;2023-07-08T10:20:34;30.20;99.90
19348;DHT22;9810;52.480;9.806;2023-07-08T10:23:09;30.80;99.90
19348;DHT22;9810;52.480;9.806;2023-07-08T10:25:47;30.90;99.90
19348;DHT22;9810;52.480;9.806;2023-07-08T10:28:28;30.30;99.90
19348;DHT22;9810;52.480;9.806;2023-07-08T10:31:06;30.10;99.90
19348;DHT22;9810;52.480;9.806;2023-07-08T10:33:50;30.20;99.90
19348;DHT22;9810;52.480;9.806;2023-07-08T10:36:25;30.60;99.90
19348;DHT22;9810;52.480;9.806;2023-07-08T10:39:20;30.80;99.90
19348;DHT22;9810;52.480;9.806;2023-07-08T10:41:59;30.30;99.90
19348;DHT22;9810;52.480;9.806;2023-07-08T10:44:35;30.90;99.90
19348;DHT22;9810;52.480;9.806;2023-07-08T10:47:13;30.50;99.90
19348;DHT22;9810;52.480;9.806;2023-07-08T10:49:54;30.30;99.90
19348;DHT22;9810;52.480;9.806;2023-07-08T10:52:39;30.90;99.90
19348;DHT22;9810;52.480;9.806;2023-07-08T10:55:19;30.00;99.90
19348;DHT22;9810;52.480;9.806;2023-07-08T11:00:56;30.30;99.90
19348;DHT22;9810;52.480;9.806;2023-07-08T11:06:29;30.20;99.90
19348;DHT22;9810;52.480;9.806;2023-07-08T11:09:01;30.30;99.90
19348;DHT22;9810;52.480;9.806;2023-07-08T11:11:33;30.40;99.90
19348;DHT22;9810;52.480;9.806;2023-07-08T11:14:06;31.10;99.90
19348;DHT22;9810;52.480;9.806;2023-07-08T11:16:39;30.30;99.90
19348;DHT22;9810;52.480;9.806;2023-07-08T11:19:12;30.40;99.90
19348;DHT22;9810;52.480;9.806;2023-07-08T11:21:45;30.90;99.90
19348;DHT22;9810;52.480;9.806;2023-07-08T11:24:21;30.60;99.90
19348;DHT22;9810;52.480;9.806;2023-07-08T11:26:52;30.00;99.90
19348;DHT22;9810;52.480;9.806;2023-07-08T11:29:23;30.60;99.90
19348;DHT22;9810;52.480;9.806;2023-07-08T11:31:54;30.80;99.90
19348;DHT22;9810;52.480;9.806;2023-07-08T11:34:22;30.70;99.90
19348;DHT22;9810;52.480;9.806;2023-07-08T11:36:53;30.90;99.90
19348;DHT22;9810;52.480;9.806;2023-07-08T11:39:31;30.90;99.90
19348;DHT22;9810;52.480;9.806;2023-07-08T11:42:19;30.90;99.90
19348;DHT22;9810;52.480;9.806;2023-07-08T11:44:49;30.90;99.90
19348;DHT22;9810;52.480;9.806;2023-07-08T11:47:22;30.80;99.60
19348;DHT22;9810;52.480;9.806;2023-07-08T11:49:52;30.80;97.40
19348;DHT22;9810;52.480;9.806;2023-07-08T11:52:22;30.80;99.90
19348;DHT22;9810;52.480;9.806;2023-07-08T11:54:57;30.90;99.90
19348;DHT22;9810;52.480;9.806;2023-07-08T11:57:28;31.30;99.90
19348;DHT22;9810;52.480;9.806;2023-07-08T12:00:15;30.90;99.90
19348;DHT22;9810;52.480;9.806;2023-07-08T12:02:55;30.90;99.70
19348;DHT22;9810;52.480;9.806;2023-07-08T12:05:33;30.90;99.90
19348;DHT22;9810;52.480;9.806;2023-07-08T12:08:11;31.20;99.90
19348;DHT22;9810;52.480;9.806;2023-07-08T12:10:41;31.20;98.80
19348;DHT22;9810;52.480;9.806;2023-07-08T12:13:15;31.00;97.40
19348;DHT22;9810;52.480;9.806;2023-07-08T12:15:43;30.70;96.30
19348;DHT22;9810;52.480;9.806;2023-07-08T12:18:13;30.70;97.70
19348;DHT22;9810;52.480;9.806;2023-07-08T12:20:44;31.00;96.30
19348;DHT22;9810;52.480;9.806;2023-07-08T12:23:15;31.00;97.80
19348;DHT22;9810;52.480;9.806;2023-07-08T12:25:42;30.60;97.80
19348;DHT22;9810;52.480;9.806;2023-07-08T12:28:10;30.70;95.30
19348;DHT22;9810;52.480;9.806;2023-07-08T12:30:40;31.10;95.20
19348;DHT22;9810;52.480;9.806;2023-07-08T12:33:11;31.60;96.20
19348;DHT22;9810;52.480;9.806;2023-07-08T12:35:41;31.40;93.10
19348;DHT22;9810;52.480;9.806;2023-07-08T12:38:19;31.30;94.20
19348;DHT22;9810;52.480;9.806;2023-07-08T12:40:50;31.30;96.10
19348;DHT22;9810;52.480;9.806;2023-07-08T12:43:17;31.60;96.00
19348;DHT22;9810;52.480;9.806;2023-07-08T12:45:45;31.80;95.50
19348;DHT22;9810;52.480;9.806;2023-07-08T12:48:12;31.10;95.00
19348;DHT22;9810;52.480;9.806;2023-07-08T12:50:39;30.70;96.60
19348;DHT22;9810;52.480;9.806;2023-07-08T12:53:07;30.90;95.10
19348;DHT22;9810;52.480;9.806;2023-07-08T12:55:39;31.40;94.90
19348;DHT22;9810;52.480;9.806;2023-07-08T12:58:09;31.60;94.40
19348;DHT22;9810;52.480;9.806;2023-07-08T13:00:40;31.40;94.10
19348;DHT22;9810;52.480;9.806;2023-07-08T13:03:12;31.40;94.90
19348;DHT22;9810;52.480;9.806;2023-07-08T13:05:41;31.60;94.40
19348;DHT22;9810;52.480;9.806;2023-07-08T13:08:10;31.80;94.90
19348;DHT22;9810;52.480;9.806;2023-07-08T13:10:40;31.60;92.40
19348;DHT22;9810;52.480;9.806;2023-07-08T13:13:11;31.60;94.20
19348;DHT22;9810;52.480;9.806;2023-07-08T13:15:41;31.40;92.90
19348;DHT22;9810;52.480;9.806;2023-07-08T13:18:14;31.40;94.10
19348;DHT22;9810;52.480;9.806;2023-07-08T13:20:52;31.40;92.90
19348;DHT22;9810;52.480;9.806;2023-07-08T13:23:20;31.60;92.60
19348;DHT22;9810;52.480;9.806;2023-07-08T13:25:51;31.40;93.10
19348;DHT22;9810;52.480;9.806;2023-07-08T13:28:22;31.50;92.90
19348;DHT22;9810;52.480;9.806;2023-07-08T13:30:51;31.20;93.90
19348;DHT22;9810;52.480;9.806;2023-07-08T13:33:18;31.50;94.00
19348;DHT22;9810;52.480;9.806;2023-07-08T13:35:46;31.70;94.90
19348;DHT22;9810;52.480;9.806;2023-07-08T13:38:16;31.80;93.80
19348;DHT22;9810;52.480;9.806;2023-07-08T13:40:46;32.00;92.80
19348;DHT22;9810;52.480;9.806;2023-07-08T13:43:16;31.60;93.70
19348;DHT22;9810;52.480;9.806;2023-07-08T13:45:44;30.80;97.50
19348;DHT22;9810;52.480;9.806;2023-07-08T13:48:20;30.20;93.20
19348;DHT22;9810;52.480;9.806;2023-07-08T13:50:53;30.90;94.60
19348;DHT22;9810;52.480;9.806;2023-07-08T13:53:24;31.30;91.70
19348;DHT22;9810;52.480;9.806;2023-07-08T13:56:00;31.40;90.90
19348;DHT22;9810;52.480;9.806;2023-07-08T13:58:30;31.60;92.80
19348;DHT22;9810;52.480;9.806;2023-07-08T14:00:57;31.60;93.00
19348;DHT22;9810;52.480;9.806;2023-07-08T14:03:25;31.90;92.20
19348;DHT22;9810;52.480;9.806;2023-07-08T14:05:53;31.70;92.30
19348;DHT22;9810;52.480;9.806;2023-07-08T14:08:20;31.60;93.30
19348;DHT22;9810;52.480;9.806;2023-07-08T14:10:48;31.60;93.70
19348;DHT22;9810;52.480;9.806;2023-07-08T14:13:16;30.20;96.90
19348;DHT22;9810;52.480;9.806;2023-07-08T14:15:45;26.60;99.90
19348;DHT22;9810;52.480;9.806;2023-07-08T14:18:12;29.10;95.30
19348;DHT22;9810;52.480;9.806;2023-07-08T14:20:40;30.20;94.50
19348;DHT22;9810;52.480;9.806;2023-07-08T14:23:09;31.00;92.70
19348;DHT22;9810;52.480;9.806;2023-07-08T14:25:38;31.40;93.70
19348;DHT22;9810;52.480;9.806;2023-07-08T14:28:06;31.70;94.30
19348;DHT22;9810;52.480;9.806;2023-07-08T14:30:35;31.80;92.30
19348;DHT22;9810;52.480;9.806;2023-07-08T14:33:07;32.00;91.70
19348;DHT22;9810;52.480;9.806;2023-07-08T14:35:35;31.90;91.20
19348;DHT22;9810;52.480;9.806;2023-07-08T14:38:02;32.10;92.90
19348;DHT22;9810;52.480;9.806;2023-07-08T14:40:33;31.80;91.60
19348;DHT22;9810;52.480;9.806;2023-07-08T14:43:03;31.40;91.60
19348;DHT22;9810;52.480;9.806;2023-07-08T14:45:36;31.70;91.80
19348;DHT22;9810;52.480;9.806;2023-07-08T14:48:09;31.30;91.00
19348;DHT22;9810;52.480;9.806;2023-07-08T14:50:37;31.50;92.00
19348;DHT22;9810;52.480;9.806;2023-07-08T14:53:04;31.90;92.50
19348;DHT22;9810;52.480;9.806;2023-07-08T14:55:32;31.70;91.50
19348;DHT22;9810;52.480;9.806;2023-07-08T14:58:00;31.80;93.70
19348;DHT22;9810;52.480;9.806;2023-07-08T15:00:29;31.30;92.80
19348;DHT22;9810;52.480;9.806;2023-07-08T15:02:56;31.30;91.60
19348;DHT22;9810;52.480;9.806;2023-07-08T15:05:29;31.20;91.20
19348;DHT22;9810;52.480;9.806;2023-07-08T15:07:57;31.10;90.70
19348;DHT22;9810;52.480;9.806;2023-07-08T15:10:26;31.20;92.50
19348;DHT22;9810;52.480;9.806;2023-07-08T15:12:55;31.50;92.30
19348;DHT22;9810;52.480;9.806;2023-07-08T15:15:28;31.40;92.40
19348;DHT22;9810;52.480;9.806;2023-07-08T15:17:56;31.60;91.60
19348;DHT22;9810;52.480;9.806;2023-07-08T15:20:25;31.80;91.40
19348;DHT22;9810;52.480;9.806;2023-07-08T15:22:52;31.50;92.40
19348;DHT22;9810;52.480;9.806;2023-07-08T15:25:20;31.60;90.70
19348;DHT22;9810;52.480;9.806;2023-07-08T15:27:50;31.80;90.40
19348;DHT22;9810;52.480;9.806;2023-07-08T15:30:20;31.90;90.70
19348;DHT22;9810;52.480;9.806;2023-07-08T15:32:47;31.70;88.90
19348;DHT22;9810;52.480;9.806;2023-07-08T15:35:16;31.80;90.90
19348;DHT22;9810;52.480;9.806;2023-07-08T15:37:46;31.50;90.10
19348;DHT22;9810;52.480;9.806;2023-07-08T15:40:15;31.30;89.50
19348;DHT22;9810;52.480;9.806;2023-07-08T15:42:44;31.50;90.70
19348;DHT22;9810;52.480;9.806;2023-07-08T15:45:18;31.70;89.70
19348;DHT22;9810;52.480;9.806;2023-07-08T15:47:47;31.50;91.90
19348;DHT22;9810;52.480;9.806;2023-07-08T15:50:16;31.00;91.40
19348;DHT22;9810;52.480;9.806;2023-07-08T15:52:45;31.30;90.90
19348;DHT22;9810;52.480;9.806;2023-07-08T15:55:16;29.20;92.30
19348;DHT22;9810;52.480;9.806;2023-07-08T15:57:47;30.30;90.60
19348;DHT22;9810;52.480;9.806;2023-07-08T16:00:18;30.30;90.60
19348;DHT22;9810;52.480;9.806;2023-07-08T16:02:49;30.10;91.70
19348;DHT22;9810;52.480;9.806;2023-07-08T16:05:17;29.30;93.10
19348;DHT22;9810;52.480;9.806;2023-07-08T16:07:48;30.30;91.80